sensor_id;sensor_type;location;lat;lon;timestamp;P1;durP1;ratioP1;P2;durP2;ratioP2
17763;SDS011;22245;52.832;13.816;2023-02-15T00:01:07;29.47;;;13.50;;
17763;SDS011;22245;52.832;13.816;2023-02-15T00:04:29;30.43;;;13.80;;
17763;SDS011;22245;52.832;13.816;2023-02-15T00:08:05;36.53;;;16.10;;
17763;SDS011;22245;52.832;13.816;2023-02-15T00:11:26;31.47;;;14.73;;
17763;SDS011;22245;52.832;13.816;2023-02-15T00:15:00;28.63;;;14.43;;
17763;SDS011;22245;52.832;13.816;2023-02-15T00:18:23;29.00;;;15.20;;
17763;SDS011;22245;52.832;13.816;2023-02-15T00:21:45;33.97;;;15.50;;
17763;SDS011;22245;52.832;13.816;2023-02-15T00:25:07;28.73;;;14.53;;
17763;SDS011;22245;52.832;13.816;2023-02-15T00:28:31;30.33;;;15.43;;
17763;SDS011;22245;52.832;13.816;2023-02-15T00:31:53;32.63;;;15.33;;
17763;SDS011;22245;52.832;13.816;2023-02-15T00:35:18;31.77;;;14.93;;
17763;SDS011;22245;52.832;13.816;2023-02-15T00:38:39;33.83;;;16.27;;
17763;SDS011;22245;52.832;13.816;2023-02-15T00:42:01;32.07;;;16.53;;
17763;SDS011;22245;52.832;13.816;2023-02-15T00:45:22;30.70;;;15.87;;
17763;SDS011;22245;52.832;13.816;2023-02-15T00:48:44;31.47;;;16.37;;
17763;SDS011;22245;52.832;13.816;2023-02-15T00:52:07;34.00;;;15.57;;
17763;SDS011;22245;52.832;13.816;2023-02-15T00:55:28;28.93;;;14.93;;
17763;SDS011;22245;52.832;13.816;2023-02-15T00:58:50;34.10;;;15.97;;
17763;SDS011;22245;52.832;13.816;2023-02-15T01:02:12;31.93;;;15.17;;
17763;SDS011;22245;52.832;13.816;2023-02-15T01:05:34;28.87;;;15.20;;
17763;SDS011;22245;52.832;13.816;2023-02-15T01:08:58;31.03;;;15.60;;
17763;SDS011;22245;52.832;13.816;2023-02-15T01:12:19;36.03;;;17.50;;
17763;SDS011;22245;52.832;13.816;2023-02-15T01:15:41;30.43;;;14.80;;
17763;SDS011;22245;52.832;13.816;2023-02-15T01:19:03;28.37;;;13.93;;
17763;SDS011;22245;52.832;13.816;2023-02-15T01:22:25;29.10;;;15.27;;
17763;SDS011;22245;52.832;13.816;2023-02-15T01:25:49;29.90;;;15.33;;
17763;SDS011;22245;52.832;13.816;2023-02-15T01:29:11;32.53;;;15.70;;
17763;SDS011;22245;52.832;13.816;2023-02-15T01:32:33;36.43;;;15.50;;
17763;SDS011;22245;52.832;13.816;2023-02-15T01:35:58;36.27;;;16.23;;
17763;SDS011;22245;52.832;13.816;2023-02-15T01:39:20;32.80;;;16.27;;
17763;SDS011;22245;52.832;13.816;2023-02-15T01:42:49;34.23;;;17.17;;
17763;SDS011;22245;52.832;13.816;2023-02-15T01:46:11;29.83;;;16.17;;
17763;SDS011;22245;52.832;13.816;2023-02-15T01:49:35;30.93;;;15.90;;
17763;SDS011;22245;52.832;13.816;2023-02-15T01:52:58;31.93;;;16.60;;
17763;SDS011;22245;52.832;13.816;2023-02-15T01:56:23;29.53;;;15.87;;
17763;SDS011;22245;52.832;13.816;2023-02-15T01:59:51;33.90;;;16.33;;
17763;SDS011;22245;52.832;13.816;2023-02-15T02:03:17;34.43;;;17.57;;
17763;SDS011;22245;52.832;13.816;2023-02-15T02:06:41;34.13;;;16.27;;
17763;SDS011;22245;52.832;13.816;2023-02-15T02:10:05;31.13;;;16.63;;
17763;SDS011;22245;52.832;13.816;2023-02-15T02:13:30;32.43;;;16.93;;
17763;SDS011;22245;52.832;13.816;2023-02-15T02:16:54;31.33;;;15.77;;
17763;SDS011;22245;52.832;13.816;2023-02-15T02:20:36;31.43;;;16.37;;
17763;SDS011;22245;52.832;13.816;2023-02-15T02:24:37;26.60;;;15.13;;
17763;SDS011;22245;52.832;13.816;2023-02-15T02:28:12;28.27;;;14.90;;
17763;SDS011;22245;52.832;13.816;2023-02-15T02:32:01;28.27;;;14.77;;
17763;SDS011;22245;52.832;13.816;2023-02-15T02:35:36;27.87;;;14.77;;
17763;SDS011;22245;52.832;13.816;2023-02-15T02:39:07;31.23;;;15.87;;
17763;SDS011;22245;52.832;13.816;2023-02-15T02:42:35;28.47;;;14.57;;
17763;SDS011;22245;52.832;13.816;2023-02-15T02:46:02;23.90;;;13.47;;
17763;SDS011;22245;52.832;13.816;2023-02-15T02:49:31;27.00;;;14.13;;
17763;SDS011;22245;52.832;13.816;2023-02-15T02:52:56;24.20;;;14.30;;
17763;SDS011;22245;52.832;13.816;2023-02-15T02:56:21;28.77;;;13.63;;
17763;SDS011;22245;52.832;13.816;2023-02-15T02:59:46;29.27;;;15.47;;
17763;SDS011;22245;52.832;13.816;2023-02-15T03:03:12;26.27;;;13.70;;
17763;SDS011;22245;52.832;13.816;2023-02-15T03:06:38;27.00;;;14.80;;
17763;SDS011;22245;52.832;13.816;2023-02-15T03:10:05;30.13;;;14.40;;
17763;SDS011;22245;52.832;13.816;2023-02-15T03:13:29;29.93;;;15.23;;
17763;SDS011;22245;52.832;13.816;2023-02-15T03:16:51;30.97;;;14.80;;
17763;SDS011;22245;52.832;13.816;2023-02-15T03:20:15;27.87;;;14.73;;
17763;SDS011;22245;52.832;13.816;2023-02-15T03:23:41;34.20;;;14.50;;
17763;SDS011;22245;52.832;13.816;2023-02-15T03:27:06;27.90;;;14.83;;
17763;SDS011;22245;52.832;13.816;2023-02-15T03:30:31;31.03;;;14.83;;
17763;SDS011;22245;52.832;13.816;2023-02-15T03:33:56;29.97;;;14.67;;
17763;SDS011;22245;52.832;13.816;2023-02-15T03:37:23;28.83;;;14.13;;
17763;SDS011;22245;52.832;13.816;2023-02-15T03:40:50;30.27;;;13.97;;
17763;SDS011;22245;52.832;13.816;2023-02-15T03:44:35;25.50;;;13.73;;
17763;SDS011;22245;52.832;13.816;2023-02-15T03:48:03;28.87;;;14.23;;
17763;SDS011;22245;52.832;13.816;2023-02-15T03:51:29;31.90;;;14.77;;
17763;SDS011;22245;52.832;13.816;2023-02-15T03:54:58;38.80;;;15.53;;
17763;SDS011;22245;52.832;13.816;2023-02-15T03:58:20;33.77;;;15.00;;
17763;SDS011;22245;52.832;13.816;2023-02-15T04:02:03;38.63;;;14.97;;
17763;SDS011;22245;52.832;13.816;2023-02-15T04:05:36;37.87;;;16.07;;
17763;SDS011;22245;52.832;13.816;2023-02-15T04:08:58;34.30;;;15.83;;
17763;SDS011;22245;52.832;13.816;2023-02-15T04:12:37;39.77;;;16.97;;
17763;SDS011;22245;52.832;13.816;2023-02-15T04:15:59;32.67;;;15.97;;
17763;SDS011;22245;52.832;13.816;2023-02-15T04:19:33;36.40;;;16.97;;
17763;SDS011;22245;52.832;13.816;2023-02-15T04:23:12;37.40;;;17.37;;
17763;SDS011;22245;52.832;13.816;2023-02-15T04:26:50;35.20;;;16.27;;
17763;SDS011;22245;52.832;13.816;2023-02-15T04:30:14;39.23;;;17.23;;
17763;SDS011;22245;52.832;13.816;2023-02-15T04:33:38;40.30;;;17.77;;
17763;SDS011;22245;52.832;13.816;2023-02-15T04:37:01;38.60;;;17.53;;
17763;SDS011;22245;52.832;13.816;2023-02-15T04:40:23;35.10;;;17.23;;
17763;SDS011;22245;52.832;13.816;2023-02-15T04:43:45;36.87;;;17.90;;
17763;SDS011;22245;52.832;13.816;2023-02-15T04:47:06;42.03;;;18.13;;
17763;SDS011;22245;52.832;13.816;2023-02-15T04:50:28;37.87;;;17.80;;
17763;SDS011;22245;52.832;13.816;2023-02-15T04:53:51;35.30;;;17.43;;
17763;SDS011;22245;52.832;13.816;2023-02-15T04:57:13;35.27;;;17.30;;
17763;SDS011;22245;52.832;13.816;2023-02-15T05:00:35;39.70;;;17.63;;
17763;SDS011;22245;52.832;13.816;2023-02-15T05:03:57;34.53;;;17.17;;
17763;SDS011;22245;52.832;13.816;2023-02-15T05:07:18;39.80;;;19.00;;
17763;SDS011;22245;52.832;13.816;2023-02-15T05:10:42;36.87;;;18.13;;
17763;SDS011;22245;52.832;13.816;2023-02-15T05:14:04;40.77;;;18.70;;
17763;SDS011;22245;52.832;13.816;2023-02-15T05:17:26;42.70;;;18.93;;
17763;SDS011;22245;52.832;13.816;2023-02-15T05:20:48;41.77;;;18.93;;
17763;SDS011;22245;52.832;13.816;2023-02-15T05:24:10;38.67;;;18.10;;
17763;SDS011;22245;52.832;13.816;2023-02-15T05:27:47;43.40;;;18.63;;
17763;SDS011;22245;52.832;13.816;2023-02-15T05:31:25;45.00;;;18.40;;
17763;SDS011;22245;52.832;13.816;2023-02-15T05:34:47;39.97;;;17.77;;
17763;SDS011;22245;52.832;13.816;2023-02-15T05:38:09;43.80;;;17.90;;
17763;SDS011;22245;52.832;13.816;2023-02-15T05:41:30;45.50;;;18.27;;
17763;SDS011;22245;52.832;13.816;2023-02-15T05:44:53;39.33;;;18.23;;
17763;SDS011;22245;52.832;13.816;2023-02-15T05:48:15;42.23;;;18.17;;
17763;SDS011;22245;52.832;13.816;2023-02-15T05:51:38;42.50;;;19.13;;
17763;SDS011;22245;52.832;13.816;2023-02-15T05:55:00;39.27;;;18.10;;
17763;SDS011;22245;52.832;13.816;2023-02-15T05:58:22;41.60;;;18.40;;
17763;SDS011;22245;52.832;13.816;2023-02-15T06:01:46;37.47;;;17.87;;
17763;SDS011;22245;52.832;13.816;2023-02-15T06:05:07;38.23;;;18.13;;
17763;SDS011;22245;52.832;13.816;2023-02-15T06:08:29;41.63;;;19.53;;
17763;SDS011;22245;52.832;13.816;2023-02-15T06:11:51;39.40;;;18.23;;
17763;SDS011;22245;52.832;13.816;2023-02-15T06:15:12;44.50;;;19.27;;
17763;SDS011;22245;52.832;13.816;2023-02-15T06:18:35;40.40;;;19.13;;
17763;SDS011;22245;52.832;13.816;2023-02-15T06:21:56;37.63;;;18.10;;
17763;SDS011;22245;52.832;13.816;2023-02-15T06:25:19;39.77;;;18.10;;
17763;SDS011;22245;52.832;13.816;2023-02-15T06:28:41;38.20;;;17.47;;
17763;SDS011;22245;52.832;13.816;2023-02-15T06:32:02;40.23;;;18.43;;
17763;SDS011;22245;52.832;13.816;2023-02-15T06:35:27;38.97;;;18.73;;
17763;SDS011;22245;52.832;13.816;2023-02-15T06:38:48;44.07;;;19.60;;
17763;SDS011;22245;52.832;13.816;2023-02-15T06:42:10;36.77;;;18.10;;
17763;SDS011;22245;52.832;13.816;2023-02-15T06:45:33;36.47;;;17.57;;
17763;SDS011;22245;52.832;13.816;2023-02-15T06:48:55;38.67;;;17.23;;
17763;SDS011;22245;52.832;13.816;2023-02-15T06:52:18;43.17;;;18.67;;
17763;SDS011;22245;52.832;13.816;2023-02-15T06:55:40;51.97;;;19.50;;
17763;SDS011;22245;52.832;13.816;2023-02-15T06:59:02;40.90;;;18.10;;
17763;SDS011;22245;52.832;13.816;2023-02-15T07:02:24;43.50;;;19.37;;
17763;SDS011;22245;52.832;13.816;2023-02-15T07:05:45;40.00;;;18.57;;
17763;SDS011;22245;52.832;13.816;2023-02-15T07:09:10;38.67;;;17.90;;
17763;SDS011;22245;52.832;13.816;2023-02-15T07:12:32;40.73;;;19.03;;
17763;SDS011;22245;52.832;13.816;2023-02-15T07:16:04;39.07;;;18.67;;
17763;SDS011;22245;52.832;13.816;2023-02-15T07:19:26;41.37;;;18.40;;
17763;SDS011;22245;52.832;13.816;2023-02-15T07:22:48;45.47;;;20.87;;
17763;SDS011;22245;52.832;13.816;2023-02-15T07:26:12;44.73;;;18.83;;
17763;SDS011;22245;52.832;13.816;2023-02-15T07:29:34;44.67;;;19.23;;
17763;SDS011;22245;52.832;13.816;2023-02-15T07:32:55;49.03;;;20.53;;
17763;SDS011;22245;52.832;13.816;2023-02-15T07:36:34;43.53;;;19.83;;
17763;SDS011;22245;52.832;13.816;2023-02-15T07:39:56;47.03;;;20.80;;
17763;SDS011;22245;52.832;13.816;2023-02-15T07:43:19;46.33;;;20.57;;
17763;SDS011;22245;52.832;13.816;2023-02-15T07:46:41;53.27;;;22.43;;
17763;SDS011;22245;52.832;13.816;2023-02-15T07:50:03;66.10;;;25.03;;
17763;SDS011;22245;52.832;13.816;2023-02-15T07:53:26;46.27;;;21.40;;
17763;SDS011;22245;52.832;13.816;2023-02-15T07:56:48;52.43;;;22.07;;
17763;SDS011;22245;52.832;13.816;2023-02-15T08:03:36;58.43;;;23.60;;
17763;SDS011;22245;52.832;13.816;2023-02-15T08:06:58;69.93;;;29.47;;
17763;SDS011;22245;52.832;13.816;2023-02-15T08:10:20;61.20;;;25.03;;
17763;SDS011;22245;52.832;13.816;2023-02-15T08:14:02;55.93;;;23.50;;
17763;SDS011;22245;52.832;13.816;2023-02-15T08:17:26;57.23;;;23.47;;
17763;SDS011;22245;52.832;13.816;2023-02-15T08:20:49;62.03;;;24.03;;
17763;SDS011;22245;52.832;13.816;2023-02-15T08:24:15;58.13;;;23.67;;
17763;SDS011;22245;52.832;13.816;2023-02-15T08:27:37;56.67;;;24.57;;
17763;SDS011;22245;52.832;13.816;2023-02-15T08:31:03;53.13;;;22.67;;
17763;SDS011;22245;52.832;13.816;2023-02-15T08:34:27;62.67;;;24.13;;
17763;SDS011;22245;52.832;13.816;2023-02-15T08:37:50;58.63;;;23.50;;
17763;SDS011;22245;52.832;13.816;2023-02-15T08:41:13;59.43;;;24.03;;
17763;SDS011;22245;52.832;13.816;2023-02-15T08:44:36;63.93;;;27.30;;
17763;SDS011;22245;52.832;13.816;2023-02-15T08:47:58;64.80;;;27.83;;
17763;SDS011;22245;52.832;13.816;2023-02-15T08:51:21;69.70;;;29.30;;
17763;SDS011;22245;52.832;13.816;2023-02-15T08:54:44;70.30;;;29.33;;
17763;SDS011;22245;52.832;13.816;2023-02-15T08:58:06;74.57;;;31.50;;
17763;SDS011;22245;52.832;13.816;2023-02-15T09:01:28;76.73;;;32.23;;
17763;SDS011;22245;52.832;13.816;2023-02-15T09:04:51;78.03;;;30.73;;
17763;SDS011;22245;52.832;13.816;2023-02-15T09:08:14;68.23;;;28.80;;
17763;SDS011;22245;52.832;13.816;2023-02-15T09:11:37;74.30;;;29.60;;
17763;SDS011;22245;52.832;13.816;2023-02-15T09:14:59;71.93;;;29.67;;
17763;SDS011;22245;52.832;13.816;2023-02-15T09:18:21;77.17;;;31.17;;
17763;SDS011;22245;52.832;13.816;2023-02-15T09:21:43;72.60;;;31.00;;
17763;SDS011;22245;52.832;13.816;2023-02-15T09:25:07;67.27;;;28.27;;
17763;SDS011;22245;52.832;13.816;2023-02-15T09:28:29;63.73;;;26.33;;
17763;SDS011;22245;52.832;13.816;2023-02-15T09:31:53;61.53;;;24.77;;
17763;SDS011;22245;52.832;13.816;2023-02-15T09:35:14;60.37;;;24.73;;
17763;SDS011;22245;52.832;13.816;2023-02-15T09:38:36;59.43;;;24.73;;
17763;SDS011;22245;52.832;13.816;2023-02-15T09:42:13;62.03;;;25.77;;
17763;SDS011;22245;52.832;13.816;2023-02-15T09:45:58;60.97;;;23.83;;
17763;SDS011;22245;52.832;13.816;2023-02-15T09:49:33;59.63;;;24.20;;
17763;SDS011;22245;52.832;13.816;2023-02-15T09:53:14;55.60;;;23.60;;
17763;SDS011;22245;52.832;13.816;2023-02-15T09:56:51;60.37;;;24.30;;
17763;SDS011;22245;52.832;13.816;2023-02-15T10:00:20;56.90;;;24.53;;
17763;SDS011;22245;52.832;13.816;2023-02-15T10:03:56;65.23;;;25.50;;
17763;SDS011;22245;52.832;13.816;2023-02-15T10:07:38;60.73;;;24.40;;
17763;SDS011;22245;52.832;13.816;2023-02-15T10:11:21;63.53;;;25.63;;
17763;SDS011;22245;52.832;13.816;2023-02-15T10:15:07;65.63;;;26.53;;
17763;SDS011;22245;52.832;13.816;2023-02-15T10:18:57;62.70;;;26.27;;
17763;SDS011;22245;52.832;13.816;2023-02-15T10:22:31;67.50;;;27.20;;
17763;SDS011;22245;52.832;13.816;2023-02-15T10:26:04;70.77;;;27.70;;
17763;SDS011;22245;52.832;13.816;2023-02-15T10:29:34;71.27;;;27.53;;
17763;SDS011;22245;52.832;13.816;2023-02-15T10:32:59;61.47;;;25.53;;
17763;SDS011;22245;52.832;13.816;2023-02-15T10:36:26;66.47;;;25.77;;
17763;SDS011;22245;52.832;13.816;2023-02-15T10:40:01;69.87;;;28.57;;
17763;SDS011;22245;52.832;13.816;2023-02-15T10:43:37;63.93;;;27.33;;
17763;SDS011;22245;52.832;13.816;2023-02-15T10:47:12;63.10;;;26.03;;
17763;SDS011;22245;52.832;13.816;2023-02-15T10:50:51;51.63;;;24.00;;
17763;SDS011;22245;52.832;13.816;2023-02-15T10:54:20;55.77;;;24.57;;
17763;SDS011;22245;52.832;13.816;2023-02-15T10:57:51;52.57;;;23.70;;
17763;SDS011;22245;52.832;13.816;2023-02-15T11:01:21;51.20;;;22.77;;
17763;SDS011;22245;52.832;13.816;2023-02-15T11:04:51;53.87;;;23.33;;
17763;SDS011;22245;52.832;13.816;2023-02-15T11:08:23;49.17;;;22.67;;
17763;SDS011;22245;52.832;13.816;2023-02-15T11:11:48;49.93;;;22.73;;
17763;SDS011;22245;52.832;13.816;2023-02-15T11:15:14;52.87;;;23.53;;
17763;SDS011;22245;52.832;13.816;2023-02-15T11:18:41;49.47;;;21.97;;
17763;SDS011;22245;52.832;13.816;2023-02-15T11:22:09;47.53;;;21.33;;
17763;SDS011;22245;52.832;13.816;2023-02-15T11:25:31;51.17;;;21.63;;
17763;SDS011;22245;52.832;13.816;2023-02-15T11:28:57;47.57;;;21.97;;
17763;SDS011;22245;52.832;13.816;2023-02-15T11:32:23;53.23;;;23.63;;
17763;SDS011;22245;52.832;13.816;2023-02-15T11:35:48;49.30;;;22.47;;
17763;SDS011;22245;52.832;13.816;2023-02-15T11:39:12;50.60;;;23.20;;
17763;SDS011;22245;52.832;13.816;2023-02-15T11:42:37;44.20;;;22.10;;
17763;SDS011;22245;52.832;13.816;2023-02-15T11:46:00;50.00;;;22.97;;
17763;SDS011;22245;52.832;13.816;2023-02-15T11:49:23;48.93;;;23.13;;
17763;SDS011;22245;52.832;13.816;2023-02-15T11:52:48;52.73;;;23.00;;
17763;SDS011;22245;52.832;13.816;2023-02-15T11:56:13;53.53;;;23.60;;
17763;SDS011;22245;52.832;13.816;2023-02-15T11:59:36;50.73;;;22.67;;
17763;SDS011;22245;52.832;13.816;2023-02-15T12:03:02;50.07;;;22.57;;
17763;SDS011;22245;52.832;13.816;2023-02-15T12:06:32;50.33;;;23.50;;
17763;SDS011;22245;52.832;13.816;2023-02-15T12:09:57;45.17;;;22.70;;
17763;SDS011;22245;52.832;13.816;2023-02-15T12:13:24;47.30;;;22.73;;
17763;SDS011;22245;52.832;13.816;2023-02-15T12:16:46;50.87;;;22.93;;
17763;SDS011;22245;52.832;13.816;2023-02-15T12:20:22;50.47;;;23.80;;
17763;SDS011;22245;52.832;13.816;2023-02-15T12:23:50;49.37;;;22.70;;
17763;SDS011;22245;52.832;13.816;2023-02-15T12:27:14;43.43;;;21.50;;
17763;SDS011;22245;52.832;13.816;2023-02-15T12:30:38;49.27;;;21.60;;
17763;SDS011;22245;52.832;13.816;2023-02-15T12:34:09;44.93;;;21.20;;
17763;SDS011;22245;52.832;13.816;2023-02-15T12:37:34;39.40;;;20.67;;
17763;SDS011;22245;52.832;13.816;2023-02-15T12:40:57;45.00;;;21.13;;
17763;SDS011;22245;52.832;13.816;2023-02-15T12:44:22;43.27;;;20.90;;
17763;SDS011;22245;52.832;13.816;2023-02-15T12:47:46;44.37;;;20.40;;
17763;SDS011;22245;52.832;13.816;2023-02-15T12:51:12;60.43;;;25.87;;
17763;SDS011;22245;52.832;13.816;2023-02-15T12:54:38;60.40;;;26.90;;
17763;SDS011;22245;52.832;13.816;2023-02-15T12:58:05;59.80;;;25.63;;
17763;SDS011;22245;52.832;13.816;2023-02-15T13:01:37;54.10;;;24.37;;
17763;SDS011;22245;52.832;13.816;2023-02-15T13:05:04;57.70;;;25.20;;
17763;SDS011;22245;52.832;13.816;2023-02-15T13:08:37;55.10;;;24.50;;
17763;SDS011;22245;52.832;13.816;2023-02-15T13:12:15;49.93;;;23.97;;
17763;SDS011;22245;52.832;13.816;2023-02-15T13:15:40;51.90;;;22.87;;
17763;SDS011;22245;52.832;13.816;2023-02-15T13:19:03;49.63;;;22.77;;
17763;SDS011;22245;52.832;13.816;2023-02-15T13:22:31;47.60;;;22.67;;
17763;SDS011;22245;52.832;13.816;2023-02-15T13:25:57;48.80;;;22.33;;
17763;SDS011;22245;52.832;13.816;2023-02-15T13:29:25;49.40;;;22.30;;
17763;SDS011;22245;52.832;13.816;2023-02-15T13:32:49;46.80;;;22.27;;
17763;SDS011;22245;52.832;13.816;2023-02-15T13:36:14;52.53;;;23.27;;
17763;SDS011;22245;52.832;13.816;2023-02-15T13:39:42;70.27;;;29.10;;
17763;SDS011;22245;52.832;13.816;2023-02-15T13:43:17;75.37;;;29.87;;
17763;SDS011;22245;52.832;13.816;2023-02-15T13:46:55;72.53;;;29.70;;
17763;SDS011;22245;52.832;13.816;2023-02-15T13:50:38;67.37;;;28.27;;
17763;SDS011;22245;52.832;13.816;2023-02-15T13:58:19;76.97;;;31.50;;
17763;SDS011;22245;52.832;13.816;2023-02-15T14:01:55;74.50;;;29.73;;
17763;SDS011;22245;52.832;13.816;2023-02-15T14:05:30;72.13;;;29.50;;
17763;SDS011;22245;52.832;13.816;2023-02-15T14:09:06;65.60;;;28.83;;
17763;SDS011;22245;52.832;13.816;2023-02-15T14:12:43;61.43;;;26.60;;
17763;SDS011;22245;52.832;13.816;2023-02-15T14:16:21;72.03;;;28.80;;
17763;SDS011;22245;52.832;13.816;2023-02-15T14:19:55;71.40;;;29.40;;
17763;SDS011;22245;52.832;13.816;2023-02-15T14:23:25;69.60;;;29.40;;
17763;SDS011;22245;52.832;13.816;2023-02-15T14:26:59;71.20;;;28.60;;
17763;SDS011;22245;52.832;13.816;2023-02-15T14:30:29;67.60;;;28.50;;
17763;SDS011;22245;52.832;13.816;2023-02-15T14:33:55;72.43;;;29.53;;
17763;SDS011;22245;52.832;13.816;2023-02-15T14:37:21;65.33;;;28.90;;
17763;SDS011;22245;52.832;13.816;2023-02-15T14:40:51;70.10;;;30.20;;
17763;SDS011;22245;52.832;13.816;2023-02-15T14:44:27;71.77;;;30.03;;
17763;SDS011;22245;52.832;13.816;2023-02-15T14:48:01;71.57;;;28.57;;
17763;SDS011;22245;52.832;13.816;2023-02-15T14:55:35;69.10;;;28.97;;
17763;SDS011;22245;52.832;13.816;2023-02-15T14:59:11;70.57;;;29.97;;
17763;SDS011;22245;52.832;13.816;2023-02-15T15:02:41;70.77;;;30.00;;
17763;SDS011;22245;52.832;13.816;2023-02-15T15:06:20;75.23;;;31.30;;
17763;SDS011;22245;52.832;13.816;2023-02-15T15:09:48;81.13;;;32.07;;
17763;SDS011;22245;52.832;13.816;2023-02-15T15:13:39;76.40;;;32.17;;
17763;SDS011;22245;52.832;13.816;2023-02-15T15:17:41;73.30;;;29.27;;
17763;SDS011;22245;52.832;13.816;2023-02-15T15:25:12;72.80;;;29.30;;
17763;SDS011;22245;52.832;13.816;2023-02-15T15:29:06;67.87;;;28.83;;
17763;SDS011;22245;52.832;13.816;2023-02-15T15:32:28;66.13;;;29.17;;
17763;SDS011;22245;52.832;13.816;2023-02-15T15:35:57;68.60;;;28.77;;
17763;SDS011;22245;52.832;13.816;2023-02-15T15:39:39;67.20;;;28.80;;
17763;SDS011;22245;52.832;13.816;2023-02-15T15:47:19;67.00;;;29.07;;
17763;SDS011;22245;52.832;13.816;2023-02-15T15:50:53;73.40;;;29.83;;
17763;SDS011;22245;52.832;13.816;2023-02-15T15:54:19;68.67;;;29.10;;
17763;SDS011;22245;52.832;13.816;2023-02-15T15:57:43;68.37;;;29.60;;
17763;SDS011;22245;52.832;13.816;2023-02-15T16:01:09;64.93;;;28.97;;
17763;SDS011;22245;52.832;13.816;2023-02-15T16:04:35;67.53;;;28.27;;
17763;SDS011;22245;52.832;13.816;2023-02-15T16:07:56;70.30;;;29.43;;
17763;SDS011;22245;52.832;13.816;2023-02-15T16:11:19;68.83;;;27.07;;
17763;SDS011;22245;52.832;13.816;2023-02-15T16:14:43;74.60;;;29.90;;
17763;SDS011;22245;52.832;13.816;2023-02-15T16:18:10;62.03;;;27.20;;
17763;SDS011;22245;52.832;13.816;2023-02-15T16:21:37;63.83;;;27.17;;
17763;SDS011;22245;52.832;13.816;2023-02-15T16:25:07;68.50;;;26.40;;
17763;SDS011;22245;52.832;13.816;2023-02-15T16:28:47;64.80;;;27.63;;
17763;SDS011;22245;52.832;13.816;2023-02-15T16:32:16;58.20;;;25.80;;
17763;SDS011;22245;52.832;13.816;2023-02-15T16:35:41;62.83;;;25.57;;
17763;SDS011;22245;52.832;13.816;2023-02-15T16:39:19;59.27;;;26.27;;
17763;SDS011;22245;52.832;13.816;2023-02-15T16:42:41;60.03;;;26.77;;
17763;SDS011;22245;52.832;13.816;2023-02-15T16:46:03;55.90;;;26.97;;
17763;SDS011;22245;52.832;13.816;2023-02-15T16:49:27;54.90;;;26.53;;
17763;SDS011;22245;52.832;13.816;2023-02-15T16:52:50;62.53;;;27.50;;
17763;SDS011;22245;52.832;13.816;2023-02-15T16:56:14;78.27;;;29.63;;
17763;SDS011;22245;52.832;13.816;2023-02-15T16:59:44;97.90;;;27.17;;
17763;SDS011;22245;52.832;13.816;2023-02-15T17:03:19;70.93;;;25.47;;
17763;SDS011;22245;52.832;13.816;2023-02-15T17:06:43;80.40;;;25.67;;
17763;SDS011;22245;52.832;13.816;2023-02-15T17:10:26;66.27;;;23.73;;
17763;SDS011;22245;52.832;13.816;2023-02-15T17:17:35;93.97;;;24.77;;
17763;SDS011;22245;52.832;13.816;2023-02-15T17:20:57;102.20;;;24.83;;
17763;SDS011;22245;52.832;13.816;2023-02-15T17:24:24;67.67;;;22.93;;
17763;SDS011;22245;52.832;13.816;2023-02-15T17:27:53;55.73;;;23.43;;
17763;SDS011;22245;52.832;13.816;2023-02-15T17:31:18;64.73;;;24.97;;
17763;SDS011;22245;52.832;13.816;2023-02-15T17:34:46;81.53;;;23.57;;
17763;SDS011;22245;52.832;13.816;2023-02-15T17:38:16;80.07;;;24.60;;
17763;SDS011;22245;52.832;13.816;2023-02-15T17:41:40;75.47;;;24.07;;
17763;SDS011;22245;52.832;13.816;2023-02-15T17:45:03;75.53;;;23.73;;
17763;SDS011;22245;52.832;13.816;2023-02-15T17:48:28;64.23;;;24.80;;
17763;SDS011;22245;52.832;13.816;2023-02-15T17:51:53;80.23;;;25.63;;
17763;SDS011;22245;52.832;13.816;2023-02-15T17:55:15;55.60;;;23.10;;
17763;SDS011;22245;52.832;13.816;2023-02-15T17:58:58;66.40;;;22.87;;
17763;SDS011;22245;52.832;13.816;2023-02-15T18:02:20;47.53;;;21.63;;
17763;SDS011;22245;52.832;13.816;2023-02-15T18:06:00;59.83;;;22.00;;
17763;SDS011;22245;52.832;13.816;2023-02-15T18:09:39;69.47;;;21.90;;
17763;SDS011;22245;52.832;13.816;2023-02-15T18:13:18;67.27;;;20.67;;
17763;SDS011;22245;52.832;13.816;2023-02-15T18:16:41;48.27;;;20.07;;
17763;SDS011;22245;52.832;13.816;2023-02-15T18:20:05;53.67;;;20.37;;
17763;SDS011;22245;52.832;13.816;2023-02-15T18:23:38;69.43;;;21.90;;
17763;SDS011;22245;52.832;13.816;2023-02-15T18:27:01;61.43;;;21.00;;
17763;SDS011;22245;52.832;13.816;2023-02-15T18:30:24;57.50;;;22.37;;
17763;SDS011;22245;52.832;13.816;2023-02-15T18:33:47;119.23;;;24.57;;
17763;SDS011;22245;52.832;13.816;2023-02-15T18:37:11;65.40;;;21.60;;
17763;SDS011;22245;52.832;13.816;2023-02-15T18:40:37;93.97;;;22.00;;
17763;SDS011;22245;52.832;13.816;2023-02-15T18:43:59;49.20;;;20.33;;
17763;SDS011;22245;52.832;13.816;2023-02-15T18:47:21;50.07;;;22.27;;
17763;SDS011;22245;52.832;13.816;2023-02-15T18:50:43;84.27;;;27.03;;
17763;SDS011;22245;52.832;13.816;2023-02-15T18:54:05;63.53;;;27.97;;
17763;SDS011;22245;52.832;13.816;2023-02-15T18:57:37;80.80;;;28.20;;
17763;SDS011;22245;52.832;13.816;2023-02-15T19:01:00;57.87;;;26.37;;
17763;SDS011;22245;52.832;13.816;2023-02-15T19:04:22;49.70;;;26.57;;
17763;SDS011;22245;52.832;13.816;2023-02-15T19:07:45;45.17;;;23.90;;
17763;SDS011;22245;52.832;13.816;2023-02-15T19:11:10;43.17;;;21.77;;
17763;SDS011;22245;52.832;13.816;2023-02-15T19:14:36;43.23;;;22.90;;
17763;SDS011;22245;52.832;13.816;2023-02-15T19:17:58;42.83;;;23.80;;
17763;SDS011;22245;52.832;13.816;2023-02-15T19:21:29;43.10;;;22.63;;
17763;SDS011;22245;52.832;13.816;2023-02-15T19:25:26;45.40;;;23.10;;
17763;SDS011;22245;52.832;13.816;2023-02-15T19:28:50;48.93;;;24.20;;
17763;SDS011;22245;52.832;13.816;2023-02-15T19:32:13;39.07;;;21.73;;
17763;SDS011;22245;52.832;13.816;2023-02-15T19:35:35;35.67;;;19.27;;
17763;SDS011;22245;52.832;13.816;2023-02-15T19:38:57;33.87;;;18.80;;
17763;SDS011;22245;52.832;13.816;2023-02-15T19:42:21;40.17;;;21.73;;
17763;SDS011;22245;52.832;13.816;2023-02-15T19:45:43;49.47;;;25.40;;
17763;SDS011;22245;52.832;13.816;2023-02-15T19:49:07;42.23;;;22.20;;
17763;SDS011;22245;52.832;13.816;2023-02-15T19:52:30;41.53;;;20.90;;
17763;SDS011;22245;52.832;13.816;2023-02-15T19:55:52;37.93;;;19.83;;
17763;SDS011;22245;52.832;13.816;2023-02-15T19:59:17;36.13;;;19.60;;
17763;SDS011;22245;52.832;13.816;2023-02-15T20:02:42;42.17;;;20.43;;
17763;SDS011;22245;52.832;13.816;2023-02-15T20:06:08;43.57;;;23.67;;
17763;SDS011;22245;52.832;13.816;2023-02-15T20:09:33;40.77;;;21.03;;
17763;SDS011;22245;52.832;13.816;2023-02-15T20:13:00;41.10;;;20.73;;
17763;SDS011;22245;52.832;13.816;2023-02-15T20:16:22;44.83;;;21.93;;